Time;durP1;ratioP1;P1;durP2;ratioP2;P2;SDS_P1;SDS_P2;PMS_P1;PMS_P2;Temp;Humidity;BMP_temperature;BMP_pressure;BME280_temperature;BME280_humidity;BME280_pressure;Samples;Min_cycle;Max_cycle;Signal;HPM_P1;HPM_P2
2021/07/31 00:00:09;;;;;;;9.27;3.03;;;15.10;99.90;;;;;;6196788;23;20012;-79
2021/07/31 00:02:34;;;;;;;7.80;2.60;;;15.10;99.90;;;;;;6224139;23;20043;-79
2021/07/31 00:05:00;;;;;;;12.57;2.95;;;15.20;99.90;;;;;;6186798;23;20013;-80
2021/07/31 00:07:26;;;;;;;10.20;2.95;;;15.20;99.90;;;;;;6197448;23;20019;-80
2021/07/31 00:09:52;;;;;;;12.77;2.70;;;15.20;99.90;;;;;;6215583;23;20107;-82
2021/07/31 00:12:17;;;;;;;8.65;3.53;;;15.20;99.90;;;;;;6190448;23;20080;-80
2021/07/31 00:14:44;;;;;;;12.30;2.75;;;15.20;99.90;;;;;;6223934;23;20068;-80
2021/07/31 00:17:09;;;;;;;10.77;3.03;;;15.20;99.90;;;;;;6187390;23;20345;-80
2021/07/31 00:19:35;;;;;;;7.75;2.70;;;15.20;99.90;;;;;;6186023;23;20021;-80
2021/07/31 00:22:02;;;;;;;8.55;3.33;;;15.20;99.90;;;;;;6212353;23;20012;-81
2021/07/31 00:24:28;;;;;;;7.50;3.10;;;15.20;99.90;;;;;;6222962;23;20012;-82
2021/07/31 00:26:55;;;;;;;7.55;3.17;;;15.20;99.90;;;;;;6186418;23;20055;-80
2021/07/31 00:29:22;;;;;;;11.40;3.72;;;15.20;99.90;;;;;;6162810;23;20020;-81
2021/07/31 00:31:47;;;;;;;18.38;3.92;;;15.20;99.90;;;;;;6196371;23;20017;-79
2021/07/31 00:34:13;;;;;;;13.73;3.92;;;15.10;99.90;;;;;;6223692;23;20015;-79
2021/07/31 00:36:39;;;;;;;11.75;3.88;;;15.10;99.90;;;;;;6187710;23;20032;-80
2021/07/31 00:39:05;;;;;;;9.50;3.40;;;15.20;99.90;;;;;;6185552;23;20021;-81
2021/07/31 00:41:31;;;;;;;12.55;3.92;;;15.20;99.90;;;;;;6221891;23;20499;-81
2021/07/31 00:43:56;;;;;;;12.48;3.78;;;15.10;99.90;;;;;;6196212;23;20016;-81
2021/07/31 00:46:23;;;;;;;15.73;4.03;;;15.10;99.90;;;;;;6186965;23;20075;-82
2021/07/31 00:48:49;;;;;;;15.30;3.97;;;15.10;99.90;;;;;;6210615;23;20035;-79
2021/07/31 00:51:16;;;;;;;11.65;4.57;;;15.10;99.90;;;;;;6195802;23;20433;-79
2021/07/31 00:53:45;;;;;;;12.23;3.95;;;15.10;99.90;;;;;;6195769;23;20013;-79
2021/07/31 00:56:12;;;;;;;10.70;4.03;;;15.10;99.90;;;;;;6187354;23;20020;-81
2021/07/31 00:58:40;;;;;;;14.38;4.10;;;15.10;99.90;;;;;;6186692;23;20012;-80
2021/07/31 01:01:06;;;;;;;10.18;3.80;;;15.00;99.90;;;;;;6196694;23;20016;-81
2021/07/31 01:03:32;;;;;;;15.32;4.10;;;15.10;99.90;;;;;;6194616;23;20016;-79
2021/07/31 01:05:58;;;;;;;14.85;4.43;;;15.00;99.90;;;;;;6185736;23;20095;-82
2021/07/31 01:08:24;;;;;;;13.80;4.65;;;15.00;99.90;;;;;;6220359;23;20012;-80
2021/07/31 01:10:51;;;;;;;13.73;4.45;;;15.00;99.90;;;;;;6196050;23;20083;-80
2021/07/31 01:13:17;;;;;;;14.07;4.28;;;15.10;99.90;;;;;;6162140;23;20016;-80
2021/07/31 01:16:03;;;;;;;15.60;4.68;;;15.00;99.90;;;;;;6224461;23;20013;-82
2021/07/31 01:18:30;;;;;;;10.35;3.78;;;15.10;99.90;;;;;;6212234;23;20549;-79
2021/07/31 01:20:56;;;;;;;19.08;4.53;;;15.10;99.90;;;;;;6195284;23;20763;-80
2021/07/31 01:23:21;;;;;;;16.75;4.65;;;15.00;99.90;;;;;;6196585;23;20012;-81
2021/07/31 01:25:47;;;;;;;14.68;4.60;;;15.00;99.90;;;;;;6223170;23;20012;-79
2021/07/31 01:28:14;;;;;;;16.35;4.82;;;14.90;99.90;;;;;;6186036;23;20025;-81
2021/07/31 01:30:39;;;;;;;13.25;5.20;;;14.90;99.90;;;;;;6185841;23;20155;-79
2021/07/31 01:33:05;;;;;;;13.20;4.90;;;14.90;99.90;;;;;;6186673;23;20421;-80
2021/07/31 01:35:31;;;;;;;15.63;5.47;;;14.90;99.90;;;;;;6222188;23;20012;-83
2021/07/31 01:37:57;;;;;;;15.35;5.20;;;14.90;99.90;;;;;;6185860;23;20040;-81
2021/07/31 01:40:23;;;;;;;18.05;5.63;;;14.90;99.90;;;;;;6222967;23;20013;-80
2021/07/31 01:42:48;;;;;;;15.50;5.13;;;14.90;99.90;;;;;;6215934;23;20311;-79
2021/07/31 01:45:14;;;;;;;13.25;5.25;;;14.90;99.90;;;;;;6222722;23;20040;-80
2021/07/31 01:47:44;;;;;;;13.77;5.28;;;14.90;99.90;;;;;;6211208;23;20083;-83
2021/07/31 01:50:10;;;;;;;17.45;5.50;;;14.90;99.90;;;;;;6185897;23;20654;-80
2021/07/31 01:52:36;;;;;;;14.65;5.13;;;15.00;99.90;;;;;;6195269;23;20061;-82
2021/07/31 01:55:01;;;;;;;12.52;5.15;;;15.00;99.90;;;;;;6213708;23;20413;-82
2021/07/31 01:57:27;;;;;;;18.17;5.88;;;15.00;99.90;;;;;;6213435;23;20355;-82
2021/07/31 01:59:53;;;;;;;14.52;5.65;;;15.00;99.90;;;;;;6223024;23;20009;-81
2021/07/31 02:02:19;;;;;;;18.17;5.43;;;15.00;99.90;;;;;;6221706;23;20019;-80
2021/07/31 02:04:44;;;;;;;16.88;6.15;;;15.00;99.90;;;;;;6186001;23;20345;-81
2021/07/31 02:07:10;;;;;;;17.70;5.60;;;15.00;99.90;;;;;;6185771;23;20090;-81
2021/07/31 02:09:36;;;;;;;18.55;6.25;;;15.00;99.90;;;;;;6161909;23;20445;-81
2021/07/31 02:12:02;;;;;;;16.52;5.75;;;15.10;99.90;;;;;;6185023;23;20013;-79
2021/07/31 02:14:28;;;;;;;22.85;6.45;;;15.00;99.90;;;;;;6156905;23;20017;-82
2021/07/31 02:16:54;;;;;;;15.57;5.78;;;15.00;99.90;;;;;;6193899;23;20021;-82
2021/07/31 02:19:20;;;;;;;18.17;6.20;;;15.10;99.90;;;;;;6168451;23;20456;-81
2021/07/31 02:21:46;;;;;;;14.90;6.32;;;15.00;99.90;;;;;;6167832;23;20095;-80
2021/07/31 02:24:12;;;;;;;15.80;6.30;;;15.10;99.90;;;;;;6169203;23;20508;-80
2021/07/31 02:26:37;;;;;;;19.52;5.97;;;15.10;99.90;;;;;;6158583;23;20123;-79
2021/07/31 02:29:03;;;;;;;18.05;6.55;;;15.10;99.90;;;;;;6184463;23;20017;-79
2021/07/31 02:31:30;;;;;;;16.90;6.47;;;15.10;99.90;;;;;;6184569;23;20013;-80
2021/07/31 02:33:55;;;;;;;17.38;6.65;;;15.10;99.90;;;;;;6158765;23;20500;-82
2021/07/31 02:36:21;;;;;;;22.67;7.00;;;15.20;99.90;;;;;;6194911;23;20036;-82
2021/07/31 02:38:52;;;;;;;17.23;7.20;;;15.10;99.90;;;;;;6167234;23;20013;-86
2021/07/31 02:41:19;;;;;;;13.45;6.85;;;15.10;99.90;;;;;;6193523;23;20013;-83
2021/07/31 02:43:45;;;;;;;16.85;6.28;;;15.10;99.90;;;;;;6167785;23;20043;-82
2021/07/31 02:46:13;;;;;;;16.60;6.22;;;15.00;99.90;;;;;;6159435;23;20090;-85
2021/07/31 02:48:39;;;;;;;16.15;6.95;;;15.20;99.90;;;;;;6193985;23;20096;-82
2021/07/31 02:51:07;;;;;;;13.75;6.82;;;15.20;99.90;;;;;;6157811;23;20025;-86
2021/07/31 02:53:33;;;;;;;20.02;7.63;;;15.10;99.90;;;;;;6156811;23;20080;-87
2021/07/31 02:55:59;;;;;;;14.25;6.70;;;15.10;99.90;;;;;;6158427;23;20021;-85
2021/07/31 02:58:30;;;;;;;20.23;7.25;;;15.10;99.90;;;;;;6169144;23;20010;-87
2021/07/31 03:00:56;;;;;;;17.42;6.57;;;15.20;99.90;;;;;;6195204;23;20017;-85
2021/07/31 03:03:22;;;;;;;17.33;7.15;;;15.10;99.90;;;;;;6158964;23;20013;-83
2021/07/31 03:05:55;;;;;;;17.60;7.13;;;15.10;99.90;;;;;;6194064;23;20041;-83
2021/07/31 03:08:21;;;;;;;19.20;7.50;;;15.10;99.90;;;;;;6166091;23;20020;-85
2021/07/31 03:10:53;;;;;;;18.50;7.60;;;15.10;99.90;;;;;;6163643;23;20084;-84
2021/07/31 03:13:20;;;;;;;19.02;7.57;;;15.10;99.90;;;;;;6197529;23;20016;-81
2021/07/31 03:15:45;;;;;;;15.15;7.53;;;15.10;99.90;;;;;;6161566;23;20013;-82
2021/07/31 03:18:12;;;;;;;19.65;8.15;;;15.10;99.90;;;;;;6196503;23;20389;-81
2021/07/31 03:20:37;;;;;;;22.40;8.25;;;15.20;99.90;;;;;;6222689;23;20008;-83
2021/07/31 03:23:03;;;;;;;23.95;8.18;;;15.10;99.90;;;;;;6224920;23;20067;-82
2021/07/31 03:25:29;;;;;;;24.30;8.25;;;15.10;99.90;;;;;;6223253;23;20088;-84
2021/07/31 03:27:55;;;;;;;24.83;8.40;;;15.10;99.90;;;;;;6187835;23;20013;-81
2021/07/31 03:30:20;;;;;;;18.45;8.25;;;15.10;99.90;;;;;;6186169;23;20024;-82
2021/07/31 03:32:47;;;;;;;21.10;8.15;;;15.10;99.90;;;;;;6214499;23;20020;-81
2021/07/31 03:35:13;;;;;;;21.13;7.78;;;15.10;99.90;;;;;;6187616;23;20012;-82
2021/07/31 03:37:39;;;;;;;22.35;7.82;;;15.10;99.90;;;;;;6187236;23;20044;-84
2021/07/31 03:40:05;;;;;;;17.88;7.43;;;15.10;99.90;;;;;;6214857;23;20326;-81
2021/07/31 03:42:31;;;;;;;14.93;7.38;;;15.20;99.90;;;;;;6191236;23;20341;-79
2021/07/31 03:44:56;;;;;;;20.58;8.10;;;15.20;99.90;;;;;;6186361;23;20012;-83
2021/07/31 03:47:22;;;;;;;22.30;6.93;;;15.30;99.90;;;;;;6213023;23;20017;-79
2021/07/31 03:49:48;;;;;;;17.77;6.93;;;15.20;99.90;;;;;;6224349;23;20414;-80
2021/07/31 03:52:14;;;;;;;17.55;6.50;;;15.20;99.90;;;;;;6186937;23;20094;-83
2021/07/31 03:54:39;;;;;;;22.45;7.30;;;15.20;99.90;;;;;;6214807;23;20079;-79
2021/07/31 03:57:25;;;;;;;17.58;7.57;;;15.10;99.90;;;;;;6191634;23;20043;-81
2021/07/31 03:59:51;;;;;;;20.35;7.30;;;15.20;99.90;;;;;;6187759;23;20012;-81
2021/07/31 04:02:16;;;;;;;15.85;6.95;;;15.30;99.90;;;;;;6212744;23;20012;-82
2021/07/31 04:04:44;;;;;;;17.05;7.15;;;15.30;99.90;;;;;;6211186;23;20019;-82
2021/07/31 04:07:11;;;;;;;14.20;6.72;;;15.20;99.90;;;;;;6162036;23;20123;-79
2021/07/31 04:09:37;;;;;;;16.58;7.47;;;15.20;99.90;;;;;;6188888;23;20166;-81
2021/07/31 04:12:03;;;;;;;18.42;6.53;;;15.30;99.90;;;;;;6212407;23;20017;-79
2021/07/31 04:14:29;;;;;;;25.42;7.15;;;15.30;99.90;;;;;;6185932;23;20455;-80
2021/07/31 04:16:55;;;;;;;23.48;6.97;;;15.30;99.90;;;;;;6196326;23;20012;-79
2021/07/31 04:19:21;;;;;;;22.77;6.30;;;15.30;99.90;;;;;;6211980;23;20020;-81
2021/07/31 04:21:51;;;;;;;17.95;6.35;;;15.40;99.90;;;;;;6221701;23;20088;-81
2021/07/31 04:24:16;;;;;;;21.38;6.75;;;15.30;99.90;;;;;;6223694;23;20019;-80
2021/07/31 04:26:44;;;;;;;16.80;6.38;;;15.30;99.90;;;;;;6221471;23;20424;-80
2021/07/31 04:29:10;;;;;;;21.55;6.80;;;15.30;99.90;;;;;;6221652;23;20016;-81
2021/07/31 04:31:35;;;;;;;17.70;6.57;;;15.40;99.90;;;;;;6223595;23;20020;-81
2021/07/31 04:34:01;;;;;;;19.48;5.57;;;15.30;99.90;;;;;;6223160;23;20062;-80
2021/07/31 04:36:27;;;;;;;23.88;5.85;;;15.40;99.90;;;;;;6213484;23;20036;-80
2021/07/31 04:38:53;;;;;;;22.25;6.68;;;15.50;99.90;;;;;;6199210;23;20019;-79
2021/07/31 04:41:19;;;;;;;20.80;6.38;;;15.50;99.90;;;;;;6189208;23;20032;-80
2021/07/31 04:43:44;;;;;;;22.67;6.43;;;15.40;99.90;;;;;;6225764;23;20008;-79
2021/07/31 04:46:10;;;;;;;17.48;5.78;;;15.40;99.90;;;;;;6199792;23;20013;-80
2021/07/31 04:48:36;;;;;;;25.38;6.65;;;15.40;99.90;;;;;;6189219;23;20013;-81
2021/07/31 04:51:03;;;;;;;23.25;5.88;;;15.40;99.90;;;;;;6188022;23;20096;-82
2021/07/31 04:53:29;;;;;;;23.98;5.53;;;15.50;99.90;;;;;;6197659;23;20020;-82
2021/07/31 04:55:56;;;;;;;22.88;5.95;;;15.50;99.90;;;;;;6196114;23;20017;-85
2021/07/31 04:58:23;;;;;;;22.83;5.82;;;15.50;99.90;;;;;;6187870;23;20017;-79
2021/07/31 05:00:50;;;;;;;24.50;5.55;;;15.60;99.90;;;;;;6220474;23;20047;-84
2021/07/31 05:03:16;;;;;;;14.93;5.03;;;15.70;99.90;;;;;;6194817;23;20031;-84
2021/07/31 05:05:43;;;;;;;18.05;5.18;;;15.70;99.90;;;;;;6185636;23;20016;-82
2021/07/31 05:08:09;;;;;;;25.00;5.38;;;15.70;99.90;;;;;;6212524;23;20021;-84
2021/07/31 05:10:43;;;;;;;27.00;5.90;;;15.70;99.90;;;;;;6210983;23;20068;-82
2021/07/31 05:13:10;;;;;;;23.80;5.35;;;15.70;99.90;;;;;;6188869;23;20016;-78
2021/07/31 05:15:42;;;;;;;21.48;5.80;;;15.70;99.90;;;;;;6222524;23;20008;-79
2021/07/31 05:18:12;;;;;;;33.20;4.93;;;15.80;99.90;;;;;;6195763;23;20461;-85
2021/07/31 05:20:40;;;;;;;26.23;5.85;;;15.80;99.90;;;;;;6222546;23;20087;-85
2021/07/31 05:23:06;;;;;;;24.45;5.82;;;15.90;99.90;;;;;;6197060;23;20393;-84
2021/07/31 05:25:32;;;;;;;24.92;5.28;;;15.90;99.90;;;;;;6186477;23;20162;-86
2021/07/31 05:27:57;;;;;;;26.13;5.53;;;15.90;99.90;;;;;;6186621;23;20017;-83
2021/07/31 05:30:23;;;;;;;29.45;5.68;;;15.90;99.90;;;;;;6195713;23;20040;-86
2021/07/31 05:32:49;;;;;;;26.17;5.18;;;15.90;99.90;;;;;;6213158;23;20082;-80
2021/07/31 05:35:15;;;;;;;25.13;5.03;;;15.90;99.90;;;;;;6222401;23;20009;-81
2021/07/31 05:37:41;;;;;;;36.67;5.82;;;16.00;99.90;;;;;;6184932;23;20051;-82
2021/07/31 05:40:10;;;;;;;28.10;5.65;;;16.10;99.90;;;;;;6195918;23;20012;-82
2021/07/31 05:42:36;;;;;;;26.15;5.38;;;16.10;99.90;;;;;;6185188;23;20009;-83
2021/07/31 05:45:04;;;;;;;30.23;5.28;;;16.10;99.90;;;;;;6222780;23;20012;-82
2021/07/31 05:47:30;;;;;;;27.00;5.28;;;16.20;99.90;;;;;;6196555;23;20070;-80
2021/07/31 05:49:57;;;;;;;28.88;5.72;;;16.20;99.90;;;;;;6223055;23;20016;-79
2021/07/31 05:52:26;;;;;;;33.40;5.90;;;16.30;99.90;;;;;;6222263;23;20012;-81
2021/07/31 05:54:52;;;;;;;29.75;5.68;;;16.30;99.90;;;;;;6213610;23;20009;-80
2021/07/31 05:57:19;;;;;;;33.05;5.80;;;16.50;99.90;;;;;;6186357;23;20016;-79
2021/07/31 05:59:45;;;;;;;26.10;5.50;;;16.50;99.90;;;;;;6197010;23;20083;-78
2021/07/31 06:02:12;;;;;;;31.50;5.40;;;16.60;99.90;;;;;;6186086;23;20122;-82
2021/07/31 06:04:39;;;;;;;36.53;6.72;;;16.50;99.90;;;;;;6186319;23;20016;-84
2021/07/31 06:07:06;;;;;;;28.10;5.63;;;16.70;99.90;;;;;;6160971;23;20129;-85
2021/07/31 06:09:37;;;;;;;28.55;5.88;;;16.70;99.90;;;;;;6164106;23;20024;-82
2021/07/31 06:12:03;;;;;;;24.05;4.88;;;16.60;99.90;;;;;;6183338;23;20017;-83
2021/07/31 06:14:32;;;;;;;28.67;5.47;;;16.60;99.90;;;;;;6183716;23;20013;-80
2021/07/31 06:16:58;;;;;;;30.25;5.20;;;16.60;99.90;;;;;;6157254;23;20429;-80
2021/07/31 06:19:23;;;;;;;33.15;6.15;;;16.60;99.90;;;;;;6166827;23;20016;-80
2021/07/31 06:21:50;;;;;;;25.73;5.07;;;16.60;99.90;;;;;;6191969;23;20017;-80
2021/07/31 06:24:16;;;;;;;24.80;4.80;;;16.60;99.90;;;;;;6193430;23;20020;-80
2021/07/31 06:26:42;;;;;;;26.60;5.50;;;16.70;99.90;;;;;;6156500;23;20025;-78
2021/07/31 06:29:07;;;;;;;27.45;4.90;;;16.70;99.90;;;;;;6156237;23;20075;-81
2021/07/31 06:31:33;;;;;;;25.88;5.05;;;16.90;99.90;;;;;;6155987;23;20013;-84
2021/07/31 06:33:59;;;;;;;28.58;5.00;;;17.00;99.90;;;;;;6156359;23;20179;-82
2021/07/31 06:36:25;;;;;;;27.55;5.53;;;17.10;99.90;;;;;;6165067;23;20426;-82
2021/07/31 06:38:54;;;;;;;29.05;5.35;;;16.90;99.90;;;;;;6156064;23;20692;-82
2021/07/31 06:41:20;;;;;;;21.08;4.68;;;16.80;99.90;;;;;;6193012;23;20370;-85
2021/07/31 06:43:45;;;;;;;22.23;4.40;;;16.70;99.90;;;;;;6157267;23;20071;-87
2021/07/31 06:46:12;;;;;;;27.13;4.93;;;16.60;99.90;;;;;;6183656;23;20462;-83
2021/07/31 06:48:38;;;;;;;19.33;4.10;;;16.60;99.90;;;;;;6157040;23;20358;-85
2021/07/31 06:51:05;;;;;;;19.70;4.45;;;16.60;99.90;;;;;;6167009;23;20009;-88
2021/07/31 06:53:30;;;;;;;24.08;5.40;;;16.70;99.90;;;;;;6157243;23;20063;-86
2021/07/31 06:56:00;;;;;;;23.17;4.30;;;16.90;99.90;;;;;;6166644;23;20414;-81
2021/07/31 06:58:26;;;;;;;23.35;4.90;;;17.20;99.90;;;;;;6159079;23;20012;-82
2021/07/31 07:00:52;;;;;;;17.75;4.70;;;17.40;99.90;;;;;;6167043;23;20013;-81
2021/07/31 07:03:18;;;;;;;17.33;3.80;;;17.30;99.90;;;;;;6157912;23;20081;-81
2021/07/31 07:05:44;;;;;;;16.55;4.10;;;17.10;99.90;;;;;;6202921;23;20123;-83
2021/07/31 07:08:11;;;;;;;16.55;3.67;;;16.90;99.90;;;;;;6179377;23;20310;-87
2021/07/31 07:10:37;;;;;;;14.80;3.85;;;16.90;99.90;;;;;;6163957;23;20103;-84
2021/07/31 07:13:06;;;;;;;19.83;4.45;;;17.00;99.90;;;;;;6187906;23;20104;-84
2021/07/31 07:15:32;;;;;;;19.88;4.55;;;17.00;99.90;;;;;;6187728;23;20020;-83
2021/07/31 07:17:58;;;;;;;19.95;5.10;;;17.10;99.90;;;;;;6187900;23;20308;-82
2021/07/31 07:20:25;;;;;;;20.88;4.15;;;17.10;99.90;;;;;;6197300;23;20095;-81
2021/07/31 07:22:52;;;;;;;17.85;4.25;;;17.20;99.90;;;;;;6186557;23;20026;-82
2021/07/31 07:25:19;;;;;;;20.20;4.60;;;17.30;99.90;;;;;;6224085;23;20057;-82
2021/07/31 07:27:45;;;;;;;13.57;4.00;;;17.20;99.90;;;;;;6192752;23;20009;-82
2021/07/31 07:30:11;;;;;;;18.67;3.75;;;17.30;99.90;;;;;;6197373;23;20398;-84
2021/07/31 07:32:38;;;;;;;15.35;3.60;;;17.20;99.90;;;;;;6197278;23;20475;-83
2021/07/31 07:35:19;;;;;;;18.58;4.55;;;17.30;99.90;;;;;;6163418;23;20090;-82
2021/07/31 07:38:07;;;;;;;23.92;5.13;;;17.50;99.90;;;;;;6162950;23;20120;-82
2021/07/31 07:41:28;;;;;;;18.70;4.75;;;17.50;99.90;;;;;;6188450;23;20020;-81
2021/07/31 07:44:05;;;;;;;18.25;4.65;;;17.50;99.90;;;;;;6164281;23;20036;-81
2021/07/31 07:46:47;;;;;;;16.80;3.88;;;17.50;99.90;;;;;;6187092;23;20008;-81
2021/07/31 07:49:22;;;;;;;19.98;4.18;;;17.50;99.90;;;;;;6187041;23;20452;-82
2021/07/31 07:51:58;;;;;;;14.88;3.45;;;17.40;99.90;;;;;;6163004;23;20024;-80
2021/07/31 07:54:29;;;;;;;18.92;4.30;;;17.60;99.90;;;;;;6214943;23;20008;-80
2021/07/31 07:57:06;;;;;;;20.05;4.13;;;17.60;99.90;;;;;;6188320;23;20449;-80
2021/07/31 07:59:35;;;;;;;16.85;3.58;;;17.60;99.90;;;;;;6198290;23;20098;-82
2021/07/31 08:02:07;;;;;;;11.10;3.95;;;17.60;99.90;;;;;;6189957;23;20012;-84
2021/07/31 08:04:57;;;;;;;17.02;3.90;;;17.50;99.90;;;;;;6163523;23;20039;-80
2021/07/31 08:07:23;;;;;;;16.35;3.63;;;17.40;99.90;;;;;;6186269;23;20506;-83
2021/07/31 08:09:49;;;;;;;16.90;4.07;;;17.30;99.90;;;;;;6189534;23;20043;-83
2021/07/31 08:12:14;;;;;;;17.80;3.83;;;17.10;99.90;;;;;;6161045;23;20017;-83
2021/07/31 08:14:40;;;;;;;28.27;4.28;;;17.00;99.90;;;;;;6214472;23;20027;-85
2021/07/31 08:17:39;;;;;;;16.42;3.58;;;17.10;99.90;;;;;;6198562;23;20020;-82
2021/07/31 08:23:41;;;;;;;13.43;2.80;;;17.30;99.90;;;;;;6123301;23;20036;-85
2021/07/31 08:26:24;;;;;;;10.20;2.78;;;17.20;99.90;;;;;;6100100;23;20026;-81
2021/07/31 08:45:21;;;;;;;12.07;3.15;;;17.80;99.90;;;;;;6213066;23;20031;-80
2021/07/31 08:47:49;;;;;;;11.25;3.38;;;18.00;99.90;;;;;;6212992;23;20008;-79
2021/07/31 08:50:26;;;;;;;13.45;3.15;;;18.10;99.90;;;;;;6213761;23;20013;-80
2021/07/31 08:52:58;;;;;;;11.15;3.17;;;18.30;99.90;;;;;;6186773;23;20016;-80
2021/07/31 08:55:29;;;;;;;11.75;3.00;;;18.50;99.90;;;;;;6185790;23;20039;-80
2021/07/31 08:57:55;;;;;;;9.32;3.00;;;18.70;99.90;;;;;;6187055;23;20016;-80
2021/07/31 09:00:21;;;;;;;13.65;2.80;;;18.60;99.90;;;;;;6224388;23;20012;-79
2021/07/31 09:07:15;;;;;;;10.75;2.50;;;18.10;99.90;;;;;;6092895;23;20034;-83
2021/07/31 09:13:43;;;;;;;8.00;2.72;;;17.90;99.90;;;;;;6065582;23;20101;-81
2021/07/31 09:16:12;;;;;;;10.88;2.92;;;18.10;99.90;;;;;;6068512;23;20042;-86
2021/07/31 09:19:12;;;;;;;8.60;2.65;;;18.20;99.90;;;;;;6042815;23;20073;-82
2021/07/31 09:25:59;;;;;;;10.95;2.83;;;18.70;99.90;;;;;;5922911;24;20017;-84
2021/07/31 09:28:25;;;;;;;8.70;2.60;;;19.00;99.90;;;;;;5899535;24;20105;-82
2021/07/31 09:30:57;;;;;;;9.48;2.65;;;19.10;99.90;;;;;;5923518;24;20021;-83
2021/07/31 09:33:23;;;;;;;8.00;2.30;;;19.20;99.90;;;;;;5899816;24;20493;-81
2021/07/31 09:36:00;;;;;;;9.52;3.45;;;19.20;99.90;;;;;;5927077;23;20025;-82
2021/07/31 09:38:46;;;;;;;9.98;2.45;;;19.20;99.90;;;;;;6014890;23;20095;-82
2021/07/31 09:41:23;;;;;;;8.60;2.60;;;19.30;99.90;;;;;;6009337;23;20026;-82
2021/07/31 09:44:10;;;;;;;12.02;2.97;;;19.20;99.90;;;;;;6016044;23;20038;-81
2021/07/31 09:46:45;;;;;;;15.40;3.10;;;19.20;99.90;;;;;;6044297;23;20019;-82
2021/07/31 09:49:13;;;;;;;10.45;2.80;;;19.10;99.90;;;;;;6036119;23;20023;-82
2021/07/31 09:51:41;;;;;;;6.78;3.08;;;19.00;99.90;;;;;;6034469;23;20054;-82
2021/07/31 09:54:10;;;;;;;7.60;3.03;;;19.00;99.90;;;;;;6041996;23;20135;-81
2021/07/31 09:56:56;;;;;;;9.77;2.97;;;19.00;99.90;;;;;;6036225;23;20034;-82
2021/07/31 09:59:50;;;;;;;11.88;2.95;;;19.00;99.90;;;;;;6011332;23;20015;-82
2021/07/31 10:06:51;;;;;;;8.98;2.78;;;19.10;99.90;;;;;;5949414;24;20073;-84
2021/07/31 10:13:38;;;;;;;10.05;3.00;;;19.40;99.90;;;;;;5948775;24;20027;-85
2021/07/31 10:16:54;;;;;;;11.88;3.38;;;19.60;99.90;;;;;;5948911;24;20024;-85
2021/07/31 10:20:00;;;;;;;;;;;;;;;;;;;;;
2021/07/31 10:23:08;;;;;;;12.35;3.50;;;19.50;99.90;;;;;;5759391;24;20100;-84
2021/07/31 10:26:19;;;;;;;17.10;3.55;;;19.70;99.90;;;;;;5743074;24;20030;-86
2021/07/31 10:28:46;;;;;;;13.05;3.45;;;19.80;99.90;;;;;;5761917;24;20110;-86
2021/07/31 10:31:44;;;;;;;14.93;3.60;;;20.00;99.90;;;;;;5741978;24;20024;-83
2021/07/31 10:35:04;;;;;;;11.68;3.35;;;20.00;99.90;;;;;;5761467;24;20541;-80
2021/07/31 10:38:38;;;;;;;13.43;3.43;;;19.90;99.90;;;;;;5733156;25;20028;-85
2021/07/31 10:41:56;;;;;;;8.98;3.05;;;20.00;99.90;;;;;;5682849;24;20239;-84
2021/07/31 10:44:36;;;;;;;12.93;3.00;;;20.20;99.90;;;;;;5796233;24;20014;-83
2021/07/31 10:47:20;;;;;;;9.35;2.90;;;20.50;99.90;;;;;;5796527;24;20317;-83
2021/07/31 10:50:29;;;;;;;13.23;3.47;;;20.50;99.90;;;;;;5796867;24;20022;-81
2021/07/31 10:53:14;;;;;;;14.98;3.42;;;20.50;99.90;;;;;;5814973;24;20019;-80
2021/07/31 10:56:47;;;;;;;13.05;3.25;;;20.10;99.90;;;;;;5815729;24;20101;-84
2021/07/31 10:59:34;;;;;;;10.18;3.40;;;20.00;99.90;;;;;;5839511;24;20043;-83
2021/07/31 11:02:33;;;;;;;11.25;3.42;;;19.90;99.90;;;;;;5895764;24;20078;-84
2021/07/31 11:05:00;;;;;;;13.68;3.85;;;19.90;99.90;;;;;;5895801;24;20017;-82
2021/07/31 11:07:27;;;;;;;8.60;3.10;;;19.80;99.90;;;;;;5894593;24;20025;-82
2021/07/31 11:10:32;;;;;;;11.60;3.65;;;19.70;99.90;;;;;;5895683;24;20025;-80
2021/07/31 11:12:58;;;;;;;8.82;3.47;;;19.60;99.90;;;;;;5922923;24;20021;-82
2021/07/31 11:15:24;;;;;;;16.67;3.85;;;19.60;99.90;;;;;;5923489;24;20017;-80
2021/07/31 11:18:00;;;;;;;9.50;3.70;;;19.40;99.90;;;;;;6003146;23;20015;-83
2021/07/31 11:20:35;;;;;;;11.27;3.85;;;19.30;99.90;;;;;;6064050;23;20034;-82
2021/07/31 11:23:12;;;;;;;10.85;3.95;;;19.30;99.90;;;;;;6072495;23;20439;-81
2021/07/31 11:25:40;;;;;;;9.63;4.00;;;19.30;99.90;;;;;;6064071;23;20401;-82
2021/07/31 11:28:08;;;;;;;12.63;4.35;;;19.40;99.90;;;;;;6091033;23;20029;-82
2021/07/31 11:31:38;;;;;;;8.95;4.25;;;19.80;99.90;;;;;;6024445;23;20014;-81
2021/07/31 11:34:16;;;;;;;12.70;4.22;;;19.90;99.90;;;;;;6012319;23;20679;-80
2021/07/31 11:37:30;;;;;;;;;;;;;;;;;;;;;
2021/07/31 11:40:33;;;;;;;7.78;3.35;;;20.40;99.90;;;;;;6035364;23;20090;-81
2021/07/31 11:43:43;;;;;;;10.15;3.50;;;20.20;99.90;;;;;;5963225;23;20028;-81
2021/07/31 11:47:05;;;;;;;8.98;3.15;;;20.10;99.90;;;;;;5987706;23;20028;-82
2021/07/31 11:50:06;;;;;;;7.93;3.50;;;20.00;99.90;;;;;;5994278;23;20094;-82
2021/07/31 11:53:52;;;;;;;6.43;3.13;;;19.90;99.90;;;;;;6034607;23;20400;-82
2021/07/31 11:57:04;;;;;;;;;;;;;;;;;;;;;
2021/07/31 12:00:20;;;;;;;5.47;2.95;;;20.40;99.90;;;;;;6006762;23;20308;-83
2021/07/31 12:03:52;;;;;;;5.93;2.97;;;21.00;99.90;;;;;;5981590;23;20025;-83
2021/07/31 12:06:51;;;;;;;9.82;2.90;;;21.70;99.90;;;;;;6006097;23;20031;-80
2021/07/31 12:09:37;;;;;;;7.65;2.90;;;21.70;99.90;;;;;;5959980;23;20046;-81
2021/07/31 12:12:36;;;;;;;7.85;3.67;;;21.90;99.90;;;;;;5959832;23;20162;-83
2021/07/31 12:15:58;;;;;;;6.93;3.15;;;21.90;99.90;;;;;;5925633;24;20021;-82
2021/07/31 12:19:09;;;;;;;7.20;3.05;;;22.00;99.90;;;;;;5950339;23;20022;-82
2021/07/31 12:21:44;;;;;;;6.65;3.10;;;21.50;99.90;;;;;;6010198;23;20029;-83
2021/07/31 12:24:38;;;;;;;5.25;2.72;;;21.30;99.90;;;;;;6011788;23;20028;-81
2021/07/31 12:27:16;;;;;;;6.20;2.90;;;21.10;99.90;;;;;;6005533;23;20016;-81
2021/07/31 12:29:56;;;;;;;5.80;2.80;;;21.00;99.90;;;;;;5982434;23;20020;-81
2021/07/31 12:33:03;;;;;;;4.88;2.67;;;21.20;99.90;;;;;;6035433;23;20020;-82
2021/07/31 12:36:07;;;;;;;5.10;2.72;;;21.50;99.90;;;;;;6068722;23;20022;-82
2021/07/31 12:38:50;;;;;;;4.38;2.85;;;22.00;99.90;;;;;;6043612;23;20397;-82
2021/07/31 12:41:25;;;;;;;5.25;2.90;;;22.40;99.90;;;;;;6068143;23;20025;-81
2021/07/31 12:43:53;;;;;;;18.10;16.33;;;22.30;99.90;;;;;;6066904;23;20018;-79
2021/07/31 12:46:20;;;;;;;4.82;2.80;;;22.20;99.90;;;;;;6108611;23;20032;-81
2021/07/31 12:48:47;;;;;;;6.88;2.70;;;21.70;99.90;;;;;;6096172;23;20033;-84
2021/07/31 12:51:13;;;;;;;4.90;3.00;;;21.70;99.90;;;;;;6091519;23;20104;-80
2021/07/31 12:53:38;;;;;;;8.57;3.10;;;22.10;99.90;;;;;;6160423;23;20056;-80
2021/07/31 12:56:04;;;;;;;5.53;3.17;;;22.30;99.90;;;;;;6151884;23;20017;-80
2021/07/31 12:58:30;;;;;;;6.57;3.47;;;22.70;99.90;;;;;;6150884;23;20437;-81
2021/07/31 13:00:56;;;;;;;5.90;3.28;;;23.10;99.90;;;;;;6153154;23;20078;-80
2021/07/31 13:03:22;;;;;;;7.15;3.08;;;23.20;99.90;;;;;;6152081;23;20029;-81
2021/07/31 13:05:48;;;;;;;7.22;2.67;;;23.10;99.90;;;;;;6162858;23;20033;-84
2021/07/31 13:08:14;;;;;;;4.03;2.67;;;22.40;99.90;;;;;;6126702;23;20013;-82
2021/07/31 13:10:45;;;;;;;6.57;2.70;;;21.90;99.90;;;;;;6151417;23;20425;-84
2021/07/31 13:13:13;;;;;;;7.72;3.10;;;21.60;99.90;;;;;;6153544;23;20014;-83
2021/07/31 13:15:46;;;;;;;4.32;2.78;;;21.40;99.90;;;;;;6164146;23;20455;-82
2021/07/31 13:18:21;;;;;;;4.97;3.00;;;21.10;99.90;;;;;;6151197;23;20013;-80
2021/07/31 13:20:55;;;;;;;7.72;3.00;;;20.80;99.90;;;;;;6160877;23;20303;-81
2021/07/31 13:23:27;;;;;;;8.68;3.63;;;20.40;99.90;;;;;;6160021;23;20017;-81
2021/07/31 13:25:53;;;;;;;8.25;3.40;;;20.00;99.90;;;;;;6150249;23;20749;-81
2021/07/31 13:28:18;;;;;;;6.10;3.38;;;19.90;99.90;;;;;;6149900;23;20113;-82
2021/07/31 13:30:44;;;;;;;9.10;3.40;;;19.90;99.90;;;;;;6125410;23;20075;-78
2021/07/31 13:33:10;;;;;;;6.47;3.53;;;19.90;99.90;;;;;;6162967;23;20064;-80
2021/07/31 13:35:44;;;;;;;7.80;4.20;;;20.40;99.90;;;;;;6161405;23;20089;-82
2021/07/31 13:38:50;;;;;;;7.00;3.72;;;21.10;99.90;;;;;;6149883;23;20025;-87
2021/07/31 13:41:58;;;;;;;9.57;3.92;;;21.30;99.90;;;;;;6115395;23;20426;-83
2021/07/31 13:49:02;;;;;;;;;;;;;;;;;;;;;
2021/07/31 14:06:04;;;;;;;9.80;4.50;;;21.10;99.90;;;;;;5115484;27;1312930;-82
2021/07/31 14:08:30;;;;;;;7.20;4.03;;;20.50;99.90;;;;;;5148130;27;20074;-83
2021/07/31 14:10:56;;;;;;;9.55;3.85;;;20.50;99.90;;;;;;5143448;27;20073;-83
2021/07/31 14:13:22;;;;;;;7.93;4.05;;;20.70;99.90;;;;;;5130508;27;20084;-79